createdAt,value
2017-02-17T00:00:56.921Z,5.1
2017-02-17T00:11:11.375Z,5.2
2017-02-17T00:21:24.593Z,5.1
2017-02-17T00:31:38.869Z,5
2017-02-17T00:41:53.459Z,5.1
2017-02-17T00:52:06.895Z,5.2
2017-02-17T01:02:20.684Z,5.2
2017-02-17T01:12:33.959Z,5.1
2017-02-17T01:22:54.530Z,5.1
2017-02-17T01:33:11.668Z,4.6
2017-02-17T01:43:17.068Z,4.7
2017-02-17T01:53:30.593Z,4.7
2017-02-17T02:03:44.443Z,4.6
2017-02-17T02:13:58.008Z,5
2017-02-17T02:24:11.297Z,5
2017-02-17T02:34:25.898Z,5.2
2017-02-17T02:44:40.024Z,5.2
2017-02-17T02:54:53.316Z,5.3
2017-02-17T03:05:07.998Z,5.3
2017-02-17T03:15:21.428Z,5.6
2017-02-17T03:25:35.426Z,5.7
2017-02-17T03:35:48.727Z,5.8
2017-02-17T03:46:02.027Z,5.8
2017-02-17T03:56:16.843Z,5.7
2017-02-17T04:06:31.721Z,5.7
2017-02-17T04:16:45.338Z,5.8
2017-02-17T04:27:05.542Z,5.7
2017-02-17T04:37:14.449Z,5.8
2017-02-17T04:47:29.301Z,5.9
2017-02-17T04:57:42.522Z,6
2017-02-17T05:07:56.964Z,6.1
2017-02-17T05:18:10.550Z,6
2017-02-17T05:28:24.681Z,6
2017-02-17T05:38:39.477Z,5.9
2017-02-17T05:48:52.703Z,5.9
2017-02-17T05:59:06.976Z,6
2017-02-17T06:09:21.529Z,5.9
2017-02-17T06:19:34.843Z,5.9
2017-02-17T06:29:48.991Z,6.1
2017-02-17T06:40:03.001Z,6.1
2017-02-17T06:50:18.067Z,6.1
2017-02-17T07:00:31.887Z,6.1
2017-02-17T07:10:45.582Z,6.2
2017-02-17T07:21:00.064Z,6.2
2017-02-17T07:31:13.808Z,6.2
2017-02-17T07:41:27.745Z,6.4
2017-02-17T07:51:40.870Z,6.4
2017-02-17T08:01:54.692Z,6.5
2017-02-17T08:12:08.899Z,6.5
2017-02-17T08:22:23.809Z,6.5
2017-02-17T08:32:37.771Z,6.6
2017-02-17T08:42:51.041Z,6.7
2017-02-17T08:53:04.779Z,6.8
2017-02-17T09:03:17.970Z,6.9
2017-02-17T09:13:32.132Z,6.9
2017-02-17T09:23:46.817Z,7
2017-02-17T09:34:00.541Z,6.9
2017-02-17T09:44:13.733Z,7.1
2017-02-17T09:54:28.273Z,7.2
2017-02-17T10:04:41.926Z,7.3
2017-02-17T10:14:56.632Z,7.3
2017-02-17T10:25:20.676Z,7.3
2017-02-17T10:35:24.489Z,7.2
2017-02-17T10:45:38.817Z,7.4
2017-02-17T10:55:52.559Z,7.4
2017-02-17T11:06:07.430Z,7.3
2017-02-17T11:16:20.612Z,7.4
2017-02-17T11:26:34.917Z,7.4
2017-02-17T11:36:56.879Z,7.5
2017-02-17T11:47:03.064Z,7.8
2017-02-17T11:57:18.324Z,8.1
2017-02-17T12:07:33.394Z,8
2017-02-17T12:17:47.782Z,8
2017-02-17T12:28:01.645Z,7.9
2017-02-17T12:38:16.616Z,8.2
2017-02-17T12:48:31.495Z,8
2017-02-17T12:58:45.942Z,7.9
2017-02-17T13:09:00.011Z,7.9
2017-02-17T13:19:14.222Z,8
2017-02-17T13:29:28.441Z,8.2
2017-02-17T13:39:42.092Z,7.9
2017-02-17T13:49:55.866Z,7.8
2017-02-17T14:00:10.563Z,8.1
2017-02-17T14:10:25.059Z,8.2
2017-02-17T14:20:38.686Z,8.5
2017-02-17T14:30:52.873Z,8.2
2017-02-17T14:41:06.767Z,7.8
2017-02-17T14:51:21.781Z,8
2017-02-17T15:01:36.386Z,7.8
2017-02-17T15:11:50.352Z,7.8
2017-02-17T15:22:06.976Z,7.6
2017-02-17T15:32:16.661Z,7.8
2017-02-17T15:42:31.727Z,7.7
2017-02-17T15:52:46.780Z,7.6
2017-02-17T16:03:01.842Z,7.6
2017-02-17T16:13:15.766Z,7.6
2017-02-17T16:23:30.605Z,7.6
2017-02-17T16:33:45.362Z,7.4
2017-02-17T16:43:58.482Z,7.3
2017-02-17T16:54:13.384Z,7.1
2017-02-17T17:04:26.548Z,7.1
2017-02-17T17:14:40.698Z,6.9
2017-02-17T17:24:54.011Z,6.9
2017-02-17T17:35:08.671Z,6.9
2017-02-17T17:45:23.076Z,6.9
2017-02-17T17:55:38.164Z,6.8
2017-02-17T18:05:52.465Z,6.8
2017-02-17T18:16:07.259Z,6.6
2017-02-17T18:26:21.440Z,6.8
2017-02-17T18:36:35.791Z,6.9
2017-02-17T18:46:49.115Z,6.8
2017-02-17T18:57:02.877Z,6.9
2017-02-17T19:07:17.536Z,6.7
2017-02-17T19:17:32.326Z,6.8
2017-02-17T19:27:46.157Z,6.6
2017-02-17T19:38:00.556Z,6.6
2017-02-17T19:48:14.056Z,6.5
2017-02-17T19:58:29.116Z,6.6
2017-02-17T20:08:44.188Z,6.5
2017-02-17T20:18:58.799Z,6.5
2017-02-17T20:29:13.065Z,6.4
2017-02-17T20:39:27.932Z,6.4
2017-02-17T20:49:42.819Z,6.4
2017-02-17T20:59:57.138Z,6.4
2017-02-17T21:10:12.113Z,6.4
2017-02-17T21:20:27.261Z,6.3
2017-02-17T21:30:41.354Z,6.2
2017-02-17T21:40:56.569Z,6.1
2017-02-17T21:51:11.090Z,6.1
2017-02-17T22:01:25.056Z,5.8
2017-02-17T22:11:39.230Z,5.8
2017-02-17T22:21:52.877Z,5.8
2017-02-17T22:32:07.845Z,5.6
2017-02-17T22:42:21.579Z,5.7
2017-02-17T22:52:36.547Z,5.6
2017-02-17T23:02:51.238Z,5.5
2017-02-17T23:13:05.271Z,5.3
2017-02-17T23:23:19.699Z,5.1
2017-02-17T23:33:34.741Z,5.2
2017-02-17T23:43:49.803Z,5.3
2017-02-17T23:54:04.232Z,5.1
